Terminal Aerodrome Forecast
Issued by NWS Twin Cities, MN

Home | Current Version | Previous Version | Graphics & Text | Print | Product List | Glossary On
Versions: 1 2 3 4 5 6 7 8 9 10 11 12 13 14 15 16 17 18 19 20 21 22 23 24
000
FTUS43 KMPX 241740
TAFEAU
TAF
KEAU 241740Z 2418/2518 15008KT P6SM -SHRA OVC050
     FM242300 10006KT 4SM -RA BR OVC015
     FM250400 08004KT 3SM -RA BR OVC008
     FM250900 VRB03KT 2SM -DZ BR OVC005
     FM251400 24005KT 3SM -SHRA BR OVC007=

USA.gov is the U.S. government's official web portal to all federal, state and local government web resources and services.